sensor_id;sensor_type;location;lat;lon;timestamp;pressure;altitude;pressure_sealevel;temperature;humidity
10978;BME280;5542;48.272;10.794;2023-01-30T00:01:02;96240.63;;;-1.93;80.58
10978;BME280;5542;48.272;10.794;2023-01-30T00:03:29;96239.84;;;-2.03;80.88
10978;BME280;5542;48.272;10.794;2023-01-30T00:05:56;96226.25;;;-1.96;80.25
10978;BME280;5542;48.272;10.794;2023-01-30T00:08:23;96227.63;;;-2.11;81.04
10978;BME280;5542;48.272;10.794;2023-01-30T00:10:49;96220.03;;;-2.03;81.56
10978;BME280;5542;48.272;10.794;2023-01-30T00:13:17;96222.22;;;-2.18;82.38
10978;BME280;5542;48.272;10.794;2023-01-30T00:15:46;96223.56;;;-2.04;80.85
10978;BME280;5542;48.272;10.794;2023-01-30T00:18:13;96223.66;;;-1.96;80.01
10978;BME280;5542;48.272;10.794;2023-01-30T00:20:40;96225.28;;;-1.95;80.46
10978;BME280;5542;48.272;10.794;2023-01-30T00:23:06;96223.28;;;-2.01;80.44
10978;BME280;5542;48.272;10.794;2023-01-30T00:25:33;96214.19;;;-2.05;80.88
10978;BME280;5542;48.272;10.794;2023-01-30T00:28:00;96198.59;;;-2.03;80.73
10978;BME280;5542;48.272;10.794;2023-01-30T00:30:29;96194.53;;;-2.06;80.99
10978;BME280;5542;48.272;10.794;2023-01-30T00:32:57;96183.66;;;-2.10;81.05
10978;BME280;5542;48.272;10.794;2023-01-30T00:35:23;96178.94;;;-2.14;80.87
10978;BME280;5542;48.272;10.794;2023-01-30T00:37:54;96162.16;;;-2.18;81.25
10978;BME280;5542;48.272;10.794;2023-01-30T00:40:21;96157.25;;;-2.21;81.02
10978;BME280;5542;48.272;10.794;2023-01-30T00:42:47;96146.00;;;-2.20;81.32
10978;BME280;5542;48.272;10.794;2023-01-30T00:45:33;96147.53;;;-2.27;81.24
10978;BME280;5542;48.272;10.794;2023-01-30T00:48:17;96146.16;;;-2.32;81.84
10978;BME280;5542;48.272;10.794;2023-01-30T00:50:44;96163.50;;;-2.24;81.27
10978;BME280;5542;48.272;10.794;2023-01-30T00:53:12;96150.09;;;-2.27;81.58
10978;BME280;5542;48.272;10.794;2023-01-30T00:55:39;96161.03;;;-2.16;80.90
10978;BME280;5542;48.272;10.794;2023-01-30T00:58:08;96160.00;;;-2.33;81.46
10978;BME280;5542;48.272;10.794;2023-01-30T01:00:36;96148.75;;;-2.32;81.43
10978;BME280;5542;48.272;10.794;2023-01-30T01:03:03;96154.56;;;-2.39;81.59
10978;BME280;5542;48.272;10.794;2023-01-30T01:05:30;96143.19;;;-2.37;81.36
10978;BME280;5542;48.272;10.794;2023-01-30T01:07:56;96148.19;;;-2.25;81.33
10978;BME280;5542;48.272;10.794;2023-01-30T01:10:23;96159.03;;;-2.32;81.07
10978;BME280;5542;48.272;10.794;2023-01-30T01:12:50;96152.94;;;-2.30;81.18
10978;BME280;5542;48.272;10.794;2023-01-30T01:15:18;96148.56;;;-2.20;80.88
10978;BME280;5542;48.272;10.794;2023-01-30T01:17:47;96159.44;;;-2.26;80.88
10978;BME280;5542;48.272;10.794;2023-01-30T01:20:14;96145.84;;;-2.19;80.48
10978;BME280;5542;48.272;10.794;2023-01-30T01:22:41;96140.56;;;-2.17;79.91
10978;BME280;5542;48.272;10.794;2023-01-30T01:25:09;96140.56;;;-2.08;79.62
10978;BME280;5542;48.272;10.794;2023-01-30T01:27:36;96136.78;;;-2.13;80.12
10978;BME280;5542;48.272;10.794;2023-01-30T01:30:03;96128.75;;;-2.10;79.61
10978;BME280;5542;48.272;10.794;2023-01-30T01:32:30;96126.72;;;-2.07;79.46
10978;BME280;5542;48.272;10.794;2023-01-30T01:34:58;96125.09;;;-2.08;79.08
10978;BME280;5542;48.272;10.794;2023-01-30T01:37:24;96119.66;;;-2.14;79.73
10978;BME280;5542;48.272;10.794;2023-01-30T01:39:51;96120.19;;;-2.11;79.59
10978;BME280;5542;48.272;10.794;2023-01-30T01:42:37;96116.44;;;-2.16;79.81
10978;BME280;5542;48.272;10.794;2023-01-30T01:45:14;96126.97;;;-2.10;79.45
10978;BME280;5542;48.272;10.794;2023-01-30T01:47:45;96131.75;;;-2.15;79.75
10978;BME280;5542;48.272;10.794;2023-01-30T01:50:19;96144.41;;;-2.31;80.54
10978;BME280;5542;48.272;10.794;2023-01-30T01:52:48;96148.69;;;-2.12;79.86
10978;BME280;5542;48.272;10.794;2023-01-30T01:55:16;96146.78;;;-2.10;80.47
10978;BME280;5542;48.272;10.794;2023-01-30T01:57:46;96143.41;;;-2.11;79.24
10978;BME280;5542;48.272;10.794;2023-01-30T02:00:16;96140.72;;;-2.28;80.12
10978;BME280;5542;48.272;10.794;2023-01-30T02:02:46;96155.34;;;-2.19;79.81
10978;BME280;5542;48.272;10.794;2023-01-30T02:05:15;96162.03;;;-2.26;80.35
10978;BME280;5542;48.272;10.794;2023-01-30T02:07:45;96166.34;;;-2.17;79.91
10978;BME280;5542;48.272;10.794;2023-01-30T02:10:17;96167.78;;;-2.05;79.31
10978;BME280;5542;48.272;10.794;2023-01-30T02:12:45;96166.34;;;-2.17;80.16
10978;BME280;5542;48.272;10.794;2023-01-30T02:15:12;96163.25;;;-2.30;80.59
10978;BME280;5542;48.272;10.794;2023-01-30T02:17:38;96168.41;;;-2.30;81.01
10978;BME280;5542;48.272;10.794;2023-01-30T02:20:13;96163.78;;;-2.17;80.42
10978;BME280;5542;48.272;10.794;2023-01-30T02:22:58;96165.94;;;-2.13;79.78
10978;BME280;5542;48.272;10.794;2023-01-30T02:28:40;96168.22;;;-2.19;79.70
10978;BME280;5542;48.272;10.794;2023-01-30T02:31:26;96155.91;;;-2.25;80.06
10978;BME280;5542;48.272;10.794;2023-01-30T02:34:03;96169.75;;;-2.26;80.15
10978;BME280;5542;48.272;10.794;2023-01-30T02:36:43;96167.81;;;-2.15;79.63
10978;BME280;5542;48.272;10.794;2023-01-30T02:39:18;96161.88;;;-2.25;80.17
10978;BME280;5542;48.272;10.794;2023-01-30T02:41:56;96168.50;;;-2.13;79.42
10978;BME280;5542;48.272;10.794;2023-01-30T02:44:29;96181.00;;;-2.27;79.81
10978;BME280;5542;48.272;10.794;2023-01-30T02:47:03;96181.81;;;-2.27;80.31
10978;BME280;5542;48.272;10.794;2023-01-30T02:49:35;96194.69;;;-2.17;80.17
10978;BME280;5542;48.272;10.794;2023-01-30T02:52:05;96183.19;;;-2.33;80.00
10978;BME280;5542;48.272;10.794;2023-01-30T02:54:33;96174.50;;;-2.22;80.29
10978;BME280;5542;48.272;10.794;2023-01-30T02:57:00;96169.19;;;-2.30;80.60
10978;BME280;5542;48.272;10.794;2023-01-30T02:59:29;96154.00;;;-2.23;80.13
10978;BME280;5542;48.272;10.794;2023-01-30T03:02:28;96145.47;;;-2.34;81.03
10978;BME280;5542;48.272;10.794;2023-01-30T03:05:09;96131.34;;;-2.20;80.19
10978;BME280;5542;48.272;10.794;2023-01-30T03:07:44;96147.78;;;-2.30;80.71
10978;BME280;5542;48.272;10.794;2023-01-30T03:10:19;96142.19;;;-2.16;80.25
10978;BME280;5542;48.272;10.794;2023-01-30T03:12:51;96151.84;;;-2.18;80.43
10978;BME280;5542;48.272;10.794;2023-01-30T03:15:27;96151.41;;;-2.14;80.44
10978;BME280;5542;48.272;10.794;2023-01-30T03:17:58;96151.41;;;-2.14;80.34
10978;BME280;5542;48.272;10.794;2023-01-30T03:20:24;96151.50;;;-1.96;79.58
10978;BME280;5542;48.272;10.794;2023-01-30T03:22:52;96140.56;;;-2.08;79.63
10978;BME280;5542;48.272;10.794;2023-01-30T03:25:21;96146.50;;;-2.07;79.20
10978;BME280;5542;48.272;10.794;2023-01-30T03:27:51;96145.19;;;-2.21;80.34
10978;BME280;5542;48.272;10.794;2023-01-30T03:30:19;96139.47;;;-2.15;79.96
10978;BME280;5542;48.272;10.794;2023-01-30T03:32:46;96137.88;;;-2.25;80.66
10978;BME280;5542;48.272;10.794;2023-01-30T03:35:14;96133.81;;;-2.18;80.54
10978;BME280;5542;48.272;10.794;2023-01-30T03:37:41;96130.25;;;-2.17;80.67
10978;BME280;5542;48.272;10.794;2023-01-30T03:40:09;96141.09;;;-2.23;80.73
10978;BME280;5542;48.272;10.794;2023-01-30T03:42:36;96141.66;;;-2.20;80.49
10978;BME280;5542;48.272;10.794;2023-01-30T03:45:03;96135.84;;;-2.22;81.21
10978;BME280;5542;48.272;10.794;2023-01-30T03:47:30;96140.69;;;-2.19;80.54
10978;BME280;5542;48.272;10.794;2023-01-30T03:49:56;96137.03;;;-2.16;80.50
10978;BME280;5542;48.272;10.794;2023-01-30T03:52:24;96146.00;;;-2.20;80.94
10978;BME280;5542;48.272;10.794;2023-01-30T03:54:51;96149.78;;;-2.15;80.60
10978;BME280;5542;48.272;10.794;2023-01-30T03:57:18;96153.34;;;-2.25;80.93
10978;BME280;5542;48.272;10.794;2023-01-30T03:59:44;96147.50;;;-2.18;80.79
10978;BME280;5542;48.272;10.794;2023-01-30T04:02:11;96156.03;;;-2.17;80.66
10978;BME280;5542;48.272;10.794;2023-01-30T04:04:38;96153.56;;;-2.19;81.18
10978;BME280;5542;48.272;10.794;2023-01-30T04:07:05;96155.88;;;-2.16;80.79
10978;BME280;5542;48.272;10.794;2023-01-30T04:09:33;96166.63;;;-2.20;81.05
10978;BME280;5542;48.272;10.794;2023-01-30T04:11:59;96160.91;;;-2.14;80.70
10978;BME280;5542;48.272;10.794;2023-01-30T04:14:26;96147.59;;;-2.10;80.09
10978;BME280;5542;48.272;10.794;2023-01-30T04:16:52;96132.69;;;-2.16;79.98
10978;BME280;5542;48.272;10.794;2023-01-30T04:19:19;96143.16;;;-2.17;80.38
10978;BME280;5542;48.272;10.794;2023-01-30T04:21:45;96128.09;;;-2.12;80.67
10978;BME280;5542;48.272;10.794;2023-01-30T04:24:12;96115.03;;;-2.11;80.55
10978;BME280;5542;48.272;10.794;2023-01-30T04:26:40;96112.75;;;-2.14;80.02
10978;BME280;5542;48.272;10.794;2023-01-30T04:29:07;96096.75;;;-2.17;80.57
10978;BME280;5542;48.272;10.794;2023-01-30T04:31:33;96092.84;;;-2.21;80.75
10978;BME280;5542;48.272;10.794;2023-01-30T04:34:00;96099.38;;;-2.27;80.93
10978;BME280;5542;48.272;10.794;2023-01-30T04:36:27;96112.09;;;-2.25;80.96
10978;BME280;5542;48.272;10.794;2023-01-30T04:38:54;96120.50;;;-2.23;80.83
10978;BME280;5542;48.272;10.794;2023-01-30T04:41:21;96116.69;;;-2.19;80.50
10978;BME280;5542;48.272;10.794;2023-01-30T04:43:49;96098.50;;;-2.08;79.80
10978;BME280;5542;48.272;10.794;2023-01-30T04:46:16;96096.75;;;-2.17;79.89
10978;BME280;5542;48.272;10.794;2023-01-30T04:48:42;96093.66;;;-2.21;80.75
10978;BME280;5542;48.272;10.794;2023-01-30T04:51:09;96067.84;;;-2.11;80.17
10978;BME280;5542;48.272;10.794;2023-01-30T04:53:36;96073.41;;;-2.16;80.49
10978;BME280;5542;48.272;10.794;2023-01-30T04:56:03;96073.59;;;-2.27;80.19
10978;BME280;5542;48.272;10.794;2023-01-30T04:58:29;96062.31;;;-2.16;80.04
10978;BME280;5542;48.272;10.794;2023-01-30T05:01:14;96062.19;;;-2.24;80.76
10978;BME280;5542;48.272;10.794;2023-01-30T05:03:41;96071.81;;;-2.17;80.12
10978;BME280;5542;48.272;10.794;2023-01-30T05:06:07;96080.06;;;-2.13;80.00
10978;BME280;5542;48.272;10.794;2023-01-30T05:08:34;96088.78;;;-2.24;80.37
10978;BME280;5542;48.272;10.794;2023-01-30T05:11:00;96086.56;;;-2.19;80.06
10978;BME280;5542;48.272;10.794;2023-01-30T05:13:27;96087.41;;;-2.18;79.64
10978;BME280;5542;48.272;10.794;2023-01-30T05:15:53;96096.25;;;-2.30;80.63
10978;BME280;5542;48.272;10.794;2023-01-30T05:18:21;96101.56;;;-2.32;80.21
10978;BME280;5542;48.272;10.794;2023-01-30T05:20:49;96100.75;;;-2.52;81.06
10978;BME280;5542;48.272;10.794;2023-01-30T05:23:15;96105.09;;;-2.43;81.04
10978;BME280;5542;48.272;10.794;2023-01-30T05:25:42;96086.13;;;-2.42;81.17
10978;BME280;5542;48.272;10.794;2023-01-30T05:28:08;96083.66;;;-2.43;81.26
10978;BME280;5542;48.272;10.794;2023-01-30T05:30:35;96082.28;;;-2.38;80.78
10978;BME280;5542;48.272;10.794;2023-01-30T05:33:02;96086.94;;;-2.41;81.26
10978;BME280;5542;48.272;10.794;2023-01-30T05:35:30;96076.34;;;-2.38;80.61
10978;BME280;5542;48.272;10.794;2023-01-30T05:37:57;96072.84;;;-2.47;81.24
10978;BME280;5542;48.272;10.794;2023-01-30T05:40:23;96071.88;;;-2.46;81.86
10978;BME280;5542;48.272;10.794;2023-01-30T05:42:50;96070.09;;;-2.36;81.86
10978;BME280;5542;48.272;10.794;2023-01-30T05:45:16;96062.78;;;-2.40;81.92
10978;BME280;5542;48.272;10.794;2023-01-30T05:47:43;96055.88;;;-2.40;81.88
10978;BME280;5542;48.272;10.794;2023-01-30T05:50:10;96042.72;;;-2.37;81.60
10978;BME280;5542;48.272;10.794;2023-01-30T05:52:38;96035.91;;;-2.38;81.65
10978;BME280;5542;48.272;10.794;2023-01-30T05:55:05;96032.84;;;-2.41;82.39
10978;BME280;5542;48.272;10.794;2023-01-30T05:57:32;96046.66;;;-2.33;81.96
10978;BME280;5542;48.272;10.794;2023-01-30T05:59:58;96048.06;;;-2.20;81.77
10978;BME280;5542;48.272;10.794;2023-01-30T06:02:25;96055.00;;;-2.21;81.00
10978;BME280;5542;48.272;10.794;2023-01-30T06:04:52;96059.19;;;-2.20;80.67
10978;BME280;5542;48.272;10.794;2023-01-30T06:07:18;96060.00;;;-2.19;80.82
10978;BME280;5542;48.272;10.794;2023-01-30T06:09:46;96058.06;;;-2.08;80.02
10978;BME280;5542;48.272;10.794;2023-01-30T06:12:13;96062.69;;;-2.11;80.17
10978;BME280;5542;48.272;10.794;2023-01-30T06:14:39;96054.31;;;-2.13;80.48
10978;BME280;5542;48.272;10.794;2023-01-30T06:17:06;96061.03;;;-2.02;79.32
10978;BME280;5542;48.272;10.794;2023-01-30T06:19:32;96061.66;;;-2.18;79.91
10978;BME280;5542;48.272;10.794;2023-01-30T06:21:59;96068.56;;;-2.28;80.08
10978;BME280;5542;48.272;10.794;2023-01-30T06:24:27;96078.34;;;-2.22;80.10
10978;BME280;5542;48.272;10.794;2023-01-30T06:26:55;96072.75;;;-2.18;80.36
10978;BME280;5542;48.272;10.794;2023-01-30T06:29:21;96081.44;;;-2.19;80.51
10978;BME280;5542;48.272;10.794;2023-01-30T06:31:48;96079.28;;;-2.23;81.13
10978;BME280;5542;48.272;10.794;2023-01-30T06:34:15;96066.88;;;-2.10;80.08
10978;BME280;5542;48.272;10.794;2023-01-30T06:36:41;96078.28;;;-2.03;79.79
10978;BME280;5542;48.272;10.794;2023-01-30T06:39:08;96079.75;;;-2.00;80.00
10978;BME280;5542;48.272;10.794;2023-01-30T06:41:34;96078.81;;;-2.09;80.20
10978;BME280;5542;48.272;10.794;2023-01-30T06:44:03;96088.66;;;-1.95;79.72
10978;BME280;5542;48.272;10.794;2023-01-30T06:46:29;96092.75;;;-1.92;79.87
10978;BME280;5542;48.272;10.794;2023-01-30T06:48:56;96093.16;;;-1.97;79.73
10978;BME280;5542;48.272;10.794;2023-01-30T06:51:22;96108.34;;;-1.94;79.91
10978;BME280;5542;48.272;10.794;2023-01-30T06:53:51;96112.50;;;-1.83;80.45
10978;BME280;5542;48.272;10.794;2023-01-30T06:56:18;96101.66;;;-1.87;79.50
10978;BME280;5542;48.272;10.794;2023-01-30T06:58:45;96106.28;;;-1.90;80.21
10978;BME280;5542;48.272;10.794;2023-01-30T07:01:13;96093.50;;;-1.82;79.22
10978;BME280;5542;48.272;10.794;2023-01-30T07:03:40;96089.06;;;-1.90;79.94
10978;BME280;5542;48.272;10.794;2023-01-30T07:06:06;96079.81;;;-1.83;79.34
10978;BME280;5542;48.272;10.794;2023-01-30T07:08:33;96085.53;;;-1.89;79.15
10978;BME280;5542;48.272;10.794;2023-01-30T07:10:59;96079.69;;;-1.91;79.57
10978;BME280;5542;48.272;10.794;2023-01-30T07:13:26;96078.78;;;-1.90;79.24
10978;BME280;5542;48.272;10.794;2023-01-30T07:15:53;96085.38;;;-1.87;79.26
10978;BME280;5542;48.272;10.794;2023-01-30T07:18:20;96090.97;;;-1.92;78.99
10978;BME280;5542;48.272;10.794;2023-01-30T07:20:47;96087.31;;;-1.89;78.94
10978;BME280;5542;48.272;10.794;2023-01-30T07:23:14;96087.81;;;-1.86;79.19
10978;BME280;5542;48.272;10.794;2023-01-30T07:25:42;96075.66;;;-1.93;79.40
10978;BME280;5542;48.272;10.794;2023-01-30T07:28:09;96061.38;;;-1.88;79.35
10978;BME280;5542;48.272;10.794;2023-01-30T07:30:35;96070.72;;;-1.87;79.26
10978;BME280;5542;48.272;10.794;2023-01-30T07:33:03;96069.06;;;-1.78;79.08
10978;BME280;5542;48.272;10.794;2023-01-30T07:35:33;96070.94;;;-1.70;79.04
10978;BME280;5542;48.272;10.794;2023-01-30T07:38:00;96074.97;;;-1.68;79.09
10978;BME280;5542;48.272;10.794;2023-01-30T07:40:27;96072.03;;;-1.73;78.98
10978;BME280;5542;48.272;10.794;2023-01-30T07:42:58;96061.97;;;-1.76;78.47
10978;BME280;5542;48.272;10.794;2023-01-30T07:45:27;96058.91;;;-1.79;78.70
10978;BME280;5542;48.272;10.794;2023-01-30T07:47:55;96066.06;;;-1.73;78.28
10978;BME280;5542;48.272;10.794;2023-01-30T07:50:21;96061.31;;;-1.78;78.05
10978;BME280;5542;48.272;10.794;2023-01-30T07:52:49;96060.13;;;-1.56;77.54
10978;BME280;5542;48.272;10.794;2023-01-30T07:55:16;96064.50;;;-1.66;77.62
10978;BME280;5542;48.272;10.794;2023-01-30T07:57:43;96061.38;;;-1.60;77.62
10978;BME280;5542;48.272;10.794;2023-01-30T08:00:10;96054.22;;;-1.48;76.99
10978;BME280;5542;48.272;10.794;2023-01-30T08:02:37;96064.97;;;-1.53;77.30
10978;BME280;5542;48.272;10.794;2023-01-30T08:05:04;96067.88;;;-1.56;77.22
10978;BME280;5542;48.272;10.794;2023-01-30T08:07:31;96060.88;;;-1.46;76.88
10978;BME280;5542;48.272;10.794;2023-01-30T08:09:59;96070.13;;;-1.25;75.92
10978;BME280;5542;48.272;10.794;2023-01-30T08:12:25;96069.81;;;-0.87;74.59
10978;BME280;5542;48.272;10.794;2023-01-30T08:14:53;96056.16;;;-0.79;74.12
10978;BME280;5542;48.272;10.794;2023-01-30T08:17:20;96046.00;;;-0.55;73.12
10978;BME280;5542;48.272;10.794;2023-01-30T08:19:46;96044.66;;;-0.41;72.53
10978;BME280;5542;48.272;10.794;2023-01-30T08:22:13;96036.38;;;-0.18;70.15
10978;BME280;5542;48.272;10.794;2023-01-30T08:24:40;96037.06;;;-0.08;71.34
10978;BME280;5542;48.272;10.794;2023-01-30T08:27:08;96044.47;;;0.21;69.39
10978;BME280;5542;48.272;10.794;2023-01-30T08:29:35;96035.31;;;0.35;68.79
10978;BME280;5542;48.272;10.794;2023-01-30T08:32:01;96036.31;;;0.50;67.86
10978;BME280;5542;48.272;10.794;2023-01-30T08:34:28;96038.19;;;0.32;68.92
10978;BME280;5542;48.272;10.794;2023-01-30T08:36:55;96014.53;;;0.18;69.12
10978;BME280;5542;48.272;10.794;2023-01-30T08:39:21;96037.81;;;0.10;69.29
10978;BME280;5542;48.272;10.794;2023-01-30T08:41:48;96026.88;;;0.33;69.38
10978;BME280;5542;48.272;10.794;2023-01-30T08:44:16;96039.41;;;0.54;67.68
10978;BME280;5542;48.272;10.794;2023-01-30T08:46:42;96031.34;;;0.73;67.70
10978;BME280;5542;48.272;10.794;2023-01-30T08:49:09;96019.38;;;0.80;66.46
10978;BME280;5542;48.272;10.794;2023-01-30T08:51:36;96010.63;;;0.89;65.51
10978;BME280;5542;48.272;10.794;2023-01-30T08:54:03;96016.16;;;1.02;65.21
10978;BME280;5542;48.272;10.794;2023-01-30T08:56:31;96035.75;;;1.05;64.72
10978;BME280;5542;48.272;10.794;2023-01-30T08:58:58;96042.06;;;1.11;65.24
10978;BME280;5542;48.272;10.794;2023-01-30T09:01:26;96044.81;;;1.25;64.24
10978;BME280;5542;48.272;10.794;2023-01-30T09:03:53;96037.38;;;1.31;64.49
10978;BME280;5542;48.272;10.794;2023-01-30T09:06:19;96019.69;;;1.42;63.58
10978;BME280;5542;48.272;10.794;2023-01-30T09:08:46;96015.66;;;1.23;64.03
10978;BME280;5542;48.272;10.794;2023-01-30T09:11:13;96021.50;;;1.01;64.63
10978;BME280;5542;48.272;10.794;2023-01-30T09:13:39;96025.22;;;0.90;64.89
10978;BME280;5542;48.272;10.794;2023-01-30T09:16:08;96024.06;;;0.76;66.11
10978;BME280;5542;48.272;10.794;2023-01-30T09:18:38;96022.78;;;0.72;66.18
10978;BME280;5542;48.272;10.794;2023-01-30T09:21:05;96022.44;;;0.75;66.06
10978;BME280;5542;48.272;10.794;2023-01-30T09:23:32;96025.06;;;0.92;65.33
10978;BME280;5542;48.272;10.794;2023-01-30T09:25:59;96033.28;;;0.71;65.49
10978;BME280;5542;48.272;10.794;2023-01-30T09:28:26;96031.47;;;0.55;66.73
10978;BME280;5542;48.272;10.794;2023-01-30T09:30:55;96015.53;;;0.25;68.30
10978;BME280;5542;48.272;10.794;2023-01-30T09:33:22;96009.94;;;0.46;68.54
10978;BME280;5542;48.272;10.794;2023-01-30T09:35:50;96001.69;;;0.43;68.08
10978;BME280;5542;48.272;10.794;2023-01-30T09:38:17;95980.50;;;0.47;68.17
10978;BME280;5542;48.272;10.794;2023-01-30T09:40:53;95970.00;;;0.49;67.74
10978;BME280;5542;48.272;10.794;2023-01-30T09:43:34;95960.94;;;0.53;68.88
10978;BME280;5542;48.272;10.794;2023-01-30T09:46:10;95950.75;;;0.60;68.18
10978;BME280;5542;48.272;10.794;2023-01-30T09:48:46;95960.78;;;0.63;68.71
10978;BME280;5542;48.272;10.794;2023-01-30T09:51:31;95976.31;;;0.79;68.71
10978;BME280;5542;48.272;10.794;2023-01-30T09:54:15;95967.28;;;0.83;68.30
10978;BME280;5542;48.272;10.794;2023-01-30T09:56:42;95956.41;;;0.80;68.80
10978;BME280;5542;48.272;10.794;2023-01-30T09:59:16;95944.59;;;0.93;68.85
10978;BME280;5542;48.272;10.794;2023-01-30T10:01:50;95937.00;;;0.92;68.50
10978;BME280;5542;48.272;10.794;2023-01-30T10:04:24;95949.94;;;1.08;68.83
10978;BME280;5542;48.272;10.794;2023-01-30T10:06:58;95943.78;;;1.17;68.53
10978;BME280;5542;48.272;10.794;2023-01-30T10:09:37;95939.56;;;1.08;69.45
10978;BME280;5542;48.272;10.794;2023-01-30T10:12:21;95944.94;;;0.98;68.76
10978;BME280;5542;48.272;10.794;2023-01-30T10:15:13;95917.09;;;0.92;69.60
10978;BME280;5542;48.272;10.794;2023-01-30T10:17:55;95906.25;;;0.81;69.72
10978;BME280;5542;48.272;10.794;2023-01-30T10:20:34;95901.09;;;0.72;70.21
10978;BME280;5542;48.272;10.794;2023-01-30T10:23:18;95881.38;;;0.71;70.25
10978;BME280;5542;48.272;10.794;2023-01-30T10:25:49;95891.88;;;0.70;70.88
10978;BME280;5542;48.272;10.794;2023-01-30T10:28:23;95887.53;;;0.62;70.39
10978;BME280;5542;48.272;10.794;2023-01-30T10:30:55;95888.78;;;0.66;71.17
10978;BME280;5542;48.272;10.794;2023-01-30T10:33:30;95896.22;;;0.69;71.09
10978;BME280;5542;48.272;10.794;2023-01-30T10:36:02;95907.22;;;0.88;71.31
10978;BME280;5542;48.272;10.794;2023-01-30T10:38:35;95892.63;;;0.95;70.98
10978;BME280;5542;48.272;10.794;2023-01-30T10:41:12;95891.66;;;1.04;70.96
10978;BME280;5542;48.272;10.794;2023-01-30T10:43:43;95885.84;;;1.10;71.00
10978;BME280;5542;48.272;10.794;2023-01-30T10:46:22;95889.06;;;1.12;70.90
10978;BME280;5542;48.272;10.794;2023-01-30T10:48:56;95885.16;;;1.24;70.93
10978;BME280;5542;48.272;10.794;2023-01-30T10:51:32;95887.75;;;1.24;70.68
10978;BME280;5542;48.272;10.794;2023-01-30T10:54:10;95891.94;;;1.25;70.59
10978;BME280;5542;48.272;10.794;2023-01-30T10:56:44;95913.81;;;1.23;70.99
10978;BME280;5542;48.272;10.794;2023-01-30T10:59:21;95906.81;;;1.32;70.49
10978;BME280;5542;48.272;10.794;2023-01-30T11:01:59;95908.47;;;1.24;70.48
10978;BME280;5542;48.272;10.794;2023-01-30T11:04:35;95909.56;;;1.38;70.71
10978;BME280;5542;48.272;10.794;2023-01-30T11:07:06;95909.22;;;1.41;70.15
10978;BME280;5542;48.272;10.794;2023-01-30T11:09:41;95908.91;;;1.36;70.20
10978;BME280;5542;48.272;10.794;2023-01-30T11:12:08;95906.31;;;1.44;69.74
10978;BME280;5542;48.272;10.794;2023-01-30T11:14:51;95899.03;;;1.40;69.81
10978;BME280;5542;48.272;10.794;2023-01-30T11:17:19;95896.88;;;1.51;70.33
10978;BME280;5542;48.272;10.794;2023-01-30T11:19:53;95888.91;;;1.61;69.17
10978;BME280;5542;48.272;10.794;2023-01-30T11:22:20;95897.66;;;1.60;69.13
10978;BME280;5542;48.272;10.794;2023-01-30T11:24:48;95888.44;;;1.58;68.74
10978;BME280;5542;48.272;10.794;2023-01-30T11:27:28;95879.41;;;1.45;69.81
10978;BME280;5542;48.272;10.794;2023-01-30T11:30:05;95889.66;;;1.39;69.91
10978;BME280;5542;48.272;10.794;2023-01-30T11:32:33;95885.13;;;1.33;70.00
10978;BME280;5542;48.272;10.794;2023-01-30T11:35:19;95883.19;;;1.26;70.92
10978;BME280;5542;48.272;10.794;2023-01-30T11:37:47;95881.59;;;1.25;70.31
10978;BME280;5542;48.272;10.794;2023-01-30T11:40:24;95872.84;;;1.26;71.02
10978;BME280;5542;48.272;10.794;2023-01-30T11:42:58;95867.81;;;1.25;70.70
10978;BME280;5542;48.272;10.794;2023-01-30T11:45:27;95860.25;;;1.15;71.21
10978;BME280;5542;48.272;10.794;2023-01-30T11:47:56;95852.16;;;1.10;71.47
10978;BME280;5542;48.272;10.794;2023-01-30T11:50:28;95854.13;;;1.00;71.79
10978;BME280;5542;48.272;10.794;2023-01-30T11:53:00;95845.38;;;1.01;72.05
10978;BME280;5542;48.272;10.794;2023-01-30T11:55:38;95844.72;;;1.07;72.58
10978;BME280;5542;48.272;10.794;2023-01-30T11:58:07;95847.63;;;1.04;72.37
10978;BME280;5542;48.272;10.794;2023-01-30T12:00:38;95829.50;;;1.04;72.53
10978;BME280;5542;48.272;10.794;2023-01-30T12:03:10;95827.53;;;1.14;72.90
10978;BME280;5542;48.272;10.794;2023-01-30T12:05:38;95815.53;;;1.13;72.53
10978;BME280;5542;48.272;10.794;2023-01-30T12:08:21;95825.75;;;1.15;73.31
10978;BME280;5542;48.272;10.794;2023-01-30T12:10:52;95821.72;;;1.12;73.69
10978;BME280;5542;48.272;10.794;2023-01-30T12:13:25;95835.63;;;1.19;74.13
10978;BME280;5542;48.272;10.794;2023-01-30T12:16:03;95819.69;;;1.31;74.52
10978;BME280;5542;48.272;10.794;2023-01-30T12:18:37;95821.78;;;1.35;74.30
10978;BME280;5542;48.272;10.794;2023-01-30T12:21:14;95814.84;;;1.27;74.37
10978;BME280;5542;48.272;10.794;2023-01-30T12:23:51;95809.34;;;1.31;75.26
10978;BME280;5542;48.272;10.794;2023-01-30T12:26:26;95818.00;;;1.46;74.39
10978;BME280;5542;48.272;10.794;2023-01-30T12:28:59;95802.25;;;1.24;74.10
10978;BME280;5542;48.272;10.794;2023-01-30T12:31:32;95791.69;;;1.26;74.83
10978;BME280;5542;48.272;10.794;2023-01-30T12:34:01;95790.06;;;1.33;74.46
10978;BME280;5542;48.272;10.794;2023-01-30T12:36:36;95780.72;;;1.55;74.21
10978;BME280;5542;48.272;10.794;2023-01-30T12:39:12;95765.50;;;1.52;73.60
10978;BME280;5542;48.272;10.794;2023-01-30T12:41:51;95749.50;;;1.48;74.04
10978;BME280;5542;48.272;10.794;2023-01-30T12:44:27;95749.19;;;1.43;73.26
10978;BME280;5542;48.272;10.794;2023-01-30T12:47:07;95735.44;;;1.43;74.10
10978;BME280;5542;48.272;10.794;2023-01-30T12:49:50;95737.72;;;1.38;73.43
10978;BME280;5542;48.272;10.794;2023-01-30T12:52:37;95745.66;;;1.36;74.05
10978;BME280;5542;48.272;10.794;2023-01-30T12:55:20;95758.06;;;1.49;73.97
10978;BME280;5542;48.272;10.794;2023-01-30T12:57:52;95744.78;;;1.52;73.88
10978;BME280;5542;48.272;10.794;2023-01-30T13:00:33;95751.22;;;1.56;73.98
10978;BME280;5542;48.272;10.794;2023-01-30T13:03:17;95756.91;;;1.51;74.47
10978;BME280;5542;48.272;10.794;2023-01-30T13:05:50;95753.69;;;1.49;73.80
10978;BME280;5542;48.272;10.794;2023-01-30T13:08:29;95751.56;;;1.53;74.08
10978;BME280;5542;48.272;10.794;2023-01-30T13:11:09;95766.66;;;1.49;73.77
10978;BME280;5542;48.272;10.794;2023-01-30T13:13:47;95769.97;;;1.66;73.41
10978;BME280;5542;48.272;10.794;2023-01-30T13:16:24;95769.72;;;1.53;73.27
10978;BME280;5542;48.272;10.794;2023-01-30T13:18:56;95778.66;;;1.73;73.10
10978;BME280;5542;48.272;10.794;2023-01-30T13:21:30;95772.19;;;1.69;73.40
10978;BME280;5542;48.272;10.794;2023-01-30T13:24:09;95786.72;;;1.78;72.92